Parkville, Missouri
Current Conditions -  °F | °C
As of 11:54 AM on Sunday 25 Jan 2015 (Local Time) from KMKC Reporting Station
Overcast Overcast  
Wind Chill: 31°   Ceiling: 1600
Heat Index: 40°   Visibility: 10mi
Dew Point: 34°   Wind: 16mph
Humidity: 79%   Direction: 330°NNW
Pressure: 29.81"   Gusts: 29mph
Location:  39.2125°N, 94.6296°W
Report Text: KMKC 251754Z 33014G25KT 10SM OVC016 04/01 A2981 RMK AO2 RAB38E47 SLP097 P0000 60000 T00440011 10061 20033 51027
Loading
Personal Weather Stations






























Interactive Weather Map New forecast layout! Learn more

10-Day Weather Forecast

Advertisements
Track Severe Weather on mobile